Time;durP1;ratioP1;P1;durP2;ratioP2;P2;SDS_P1;SDS_P2;PMS_P1;PMS_P2;Temp;Humidity;BMP_temperature;BMP_pressure;BME280_temperature;BME280_humidity;BME280_pressure;Samples;Min_cycle;Max_cycle;Signal;HPM_P1;HPM_P2
2023/09/08 00:01:01;;;;;;;20.40;9.93;;;25.20;92.30;;;;;;4263101;27;20364;-61
2023/09/08 00:03:05;;;;;;;14.40;9.20;;;25.10;92.30;;;;;;4264356;27;20447;-61
2023/09/08 00:05:07;;;;;;;13.27;8.85;;;25.10;92.10;;;;;;4264270;27;20068;-61
2023/09/08 00:07:10;;;;;;;14.38;9.38;;;25.10;92.00;;;;;;4263933;27;20046;-62
2023/09/08 00:09:12;;;;;;;19.88;9.48;;;25.10;92.00;;;;;;4264228;27;20121;-62
2023/09/08 00:11:14;;;;;;;16.85;8.60;;;25.20;91.90;;;;;;4246507;28;20504;-62
2023/09/08 00:13:16;;;;;;;19.73;8.52;;;25.10;91.80;;;;;;4264169;27;20043;-62
2023/09/08 00:15:21;;;;;;;14.48;8.27;;;25.10;91.90;;;;;;4264400;27;20047;-62
2023/09/08 00:17:23;;;;;;;18.02;8.55;;;25.10;91.80;;;;;;4264079;27;20042;-62
2023/09/08 00:19:26;;;;;;;14.00;8.60;;;25.10;92.00;;;;;;4245495;27;20568;-62
2023/09/08 00:21:28;;;;;;;11.20;7.85;;;25.10;91.80;;;;;;4262880;27;20050;-62
2023/09/08 00:23:30;;;;;;;12.35;7.03;;;25.10;91.80;;;;;;4263782;27;20045;-62
2023/09/08 00:25:34;;;;;;;9.90;6.80;;;25.00;91.90;;;;;;4263794;27;20043;-61
2023/09/08 00:27:36;;;;;;;13.43;7.00;;;25.00;91.90;;;;;;4263822;27;20096;-62
2023/09/08 00:29:38;;;;;;;13.70;7.40;;;25.00;92.00;;;;;;4264152;27;20067;-62
2023/09/08 00:31:41;;;;;;;12.20;7.63;;;25.00;91.90;;;;;;4263123;27;20042;-62
2023/09/08 00:33:44;;;;;;;17.65;7.55;;;25.00;92.20;;;;;;4265006;27;20050;-62
2023/09/08 00:35:50;;;;;;;14.40;7.45;;;24.90;92.30;;;;;;4267283;27;20042;-62
2023/09/08 00:37:52;;;;;;;13.75;7.47;;;24.90;92.30;;;;;;4266561;27;20047;-63
2023/09/08 00:39:54;;;;;;;11.73;7.50;;;24.80;92.40;;;;;;4266456;27;20502;-63
2023/09/08 00:41:58;;;;;;;13.93;7.43;;;24.80;92.40;;;;;;4266614;27;20049;-63
2023/09/08 00:44:00;;;;;;;13.07;8.07;;;24.80;92.50;;;;;;4266922;27;20550;-65
2023/09/08 00:46:02;;;;;;;17.73;7.90;;;24.80;92.40;;;;;;4266988;27;20553;-62
2023/09/08 00:48:05;;;;;;;12.73;7.25;;;24.70;92.40;;;;;;4267039;27;20198;-63
2023/09/08 00:50:08;;;;;;;18.75;8.63;;;24.70;92.30;;;;;;4266683;27;20455;-63
2023/09/08 00:52:12;;;;;;;10.30;7.63;;;24.70;92.50;;;;;;4266671;27;20046;-63
2023/09/08 00:54:15;;;;;;;16.40;8.48;;;24.70;92.60;;;;;;4267063;27;20099;-62
2023/09/08 00:56:17;;;;;;;11.52;8.10;;;24.70;92.60;;;;;;4267043;27;20488;-64
2023/09/08 00:58:20;;;;;;;11.52;7.63;;;24.60;92.70;;;;;;4266686;27;20043;-62
2023/09/08 01:00:22;;;;;;;10.27;7.32;;;24.60;92.80;;;;;;4266100;27;20043;-62
2023/09/08 01:02:24;;;;;;;14.15;8.13;;;24.60;92.70;;;;;;4266814;27;20411;-64
2023/09/08 01:04:26;;;;;;;16.63;8.10;;;24.60;92.80;;;;;;4248565;27;20054;-65
2023/09/08 01:06:30;;;;;;;17.45;7.53;;;24.50;93.00;;;;;;4266670;27;20051;-62
2023/09/08 01:08:35;;;;;;;14.38;8.27;;;24.50;92.90;;;;;;4266681;27;20074;-63
2023/09/08 01:10:39;;;;;;;13.65;7.47;;;24.50;93.00;;;;;;4265446;27;20046;-63
2023/09/08 01:12:41;;;;;;;14.52;8.10;;;24.40;93.10;;;;;;4266386;27;20073;-63
2023/09/08 01:14:43;;;;;;;16.48;7.75;;;24.40;93.10;;;;;;4266335;27;20051;-63
2023/09/08 01:16:45;;;;;;;16.10;8.70;;;24.40;93.10;;;;;;4266294;27;20396;-63
2023/09/08 01:18:49;;;;;;;14.90;7.63;;;24.40;93.10;;;;;;4266419;27;20073;-64
2023/09/08 01:21:13;;;;;;;13.82;8.02;;;24.50;93.10;;;;;;4265145;27;20137;-64
2023/09/08 01:23:21;;;;;;;16.42;8.90;;;24.50;93.40;;;;;;4266317;27;20107;-63
2023/09/08 01:25:26;;;;;;;13.75;8.63;;;24.40;93.00;;;;;;4266559;27;20042;-63
2023/09/08 01:27:30;;;;;;;14.80;7.68;;;24.50;93.20;;;;;;4266235;27;20070;-64
2023/09/08 01:29:35;;;;;;;15.70;8.85;;;24.40;93.30;;;;;;4266200;27;20130;-62
2023/09/08 01:31:37;;;;;;;11.90;8.20;;;24.40;93.30;;;;;;4264952;27;20042;-63
2023/09/08 01:33:41;;;;;;;18.73;8.90;;;24.40;93.30;;;;;;4266232;27;20043;-63
2023/09/08 01:35:44;;;;;;;16.45;9.40;;;24.40;93.10;;;;;;4265902;27;20098;-63
2023/09/08 01:37:47;;;;;;;11.77;8.05;;;24.50;93.20;;;;;;4266326;27;20399;-65
2023/09/08 01:39:49;;;;;;;23.52;10.07;;;24.40;93.30;;;;;;4265944;27;20051;-64
2023/09/08 01:41:53;;;;;;;18.98;9.00;;;24.40;93.40;;;;;;4265288;27;20035;-64
2023/09/08 01:43:58;;;;;;;14.67;8.60;;;24.30;93.30;;;;;;4266211;27;20099;-63
2023/09/08 01:46:00;;;;;;;18.60;9.85;;;24.30;93.40;;;;;;4246528;27;20083;-63
2023/09/08 01:48:04;;;;;;;15.75;7.97;;;24.30;93.30;;;;;;4265581;27;20051;-63
2023/09/08 01:50:07;;;;;;;16.08;8.60;;;24.30;93.40;;;;;;4265098;27;20042;-63
2023/09/08 01:52:09;;;;;;;21.08;9.00;;;24.30;93.40;;;;;;4265482;27;20043;-63
2023/09/08 01:54:11;;;;;;;16.52;8.13;;;24.30;93.50;;;;;;4265908;27;20039;-64
2023/09/08 01:56:13;;;;;;;11.82;7.82;;;24.30;93.40;;;;;;4266097;27;20137;-72
2023/09/08 01:58:16;;;;;;;13.68;8.65;;;24.30;93.60;;;;;;4266190;27;20050;-63
2023/09/08 02:00:18;;;;;;;15.07;8.15;;;24.20;93.60;;;;;;4265042;27;20377;-66
2023/09/08 02:02:21;;;;;;;24.30;8.65;;;24.20;93.70;;;;;;4265379;27;20049;-66
2023/09/08 02:04:23;;;;;;;17.85;9.05;;;24.20;93.80;;;;;;4265630;27;20439;-63
2023/09/08 02:06:25;;;;;;;17.15;8.52;;;24.20;93.80;;;;;;4265578;27;20053;-63
2023/09/08 02:08:27;;;;;;;18.80;8.65;;;24.20;93.80;;;;;;4265182;27;20042;-63
2023/09/08 02:10:29;;;;;;;12.73;7.43;;;24.20;93.90;;;;;;4264557;27;20042;-63
2023/09/08 02:12:31;;;;;;;15.55;9.00;;;24.10;93.90;;;;;;4265714;27;20051;-64
2023/09/08 02:14:35;;;;;;;17.20;8.55;;;24.10;94.00;;;;;;4265627;27;20050;-63
2023/09/08 02:16:37;;;;;;;17.52;9.05;;;24.10;94.10;;;;;;4265315;27;20049;-63
2023/09/08 02:18:39;;;;;;;14.70;8.55;;;24.00;94.20;;;;;;4265549;27;20047;-63
2023/09/08 02:20:41;;;;;;;14.90;7.55;;;24.00;94.10;;;;;;4263805;27;20134;-63
2023/09/08 02:22:43;;;;;;;16.25;8.73;;;24.00;94.20;;;;;;4265268;27;20480;-63
2023/09/08 02:24:46;;;;;;;18.08;8.30;;;24.00;94.30;;;;;;4265331;27;20043;-62
2023/09/08 02:26:51;;;;;;;16.75;7.75;;;23.90;94.30;;;;;;4265007;27;20043;-63
2023/09/08 02:28:56;;;;;;;11.25;7.00;;;23.90;94.40;;;;;;4265338;27;20051;-63
2023/09/08 02:31:00;;;;;;;19.27;8.73;;;23.90;94.40;;;;;;4263992;27;20119;-63
2023/09/08 02:33:02;;;;;;;19.10;7.85;;;23.90;94.30;;;;;;4265179;27;20047;-62
2023/09/08 02:35:05;;;;;;;17.33;8.23;;;23.90;94.50;;;;;;4264805;27;20524;-62
2023/09/08 02:37:08;;;;;;;13.63;7.03;;;23.80;94.40;;;;;;4264904;27;20421;-61
2023/09/08 02:39:10;;;;;;;16.55;7.43;;;23.80;94.50;;;;;;4265120;27;20051;-62
2023/09/08 02:41:12;;;;;;;20.40;7.53;;;23.80;94.50;;;;;;4263842;27;20046;-62
2023/09/08 02:43:15;;;;;;;15.15;6.70;;;23.80;94.50;;;;;;4265168;27;20043;-61
2023/09/08 02:45:17;;;;;;;16.13;7.88;;;23.70;94.60;;;;;;4264807;27;20042;-62
2023/09/08 02:47:20;;;;;;;15.23;7.40;;;23.70;94.70;;;;;;4265311;27;20455;-62
2023/09/08 02:49:22;;;;;;;12.27;6.47;;;23.70;94.70;;;;;;4264362;27;20058;-62
2023/09/08 02:51:25;;;;;;;14.82;6.68;;;23.70;94.60;;;;;;4264063;27;20050;-63
2023/09/08 02:53:28;;;;;;;15.23;6.50;;;23.70;94.60;;;;;;4265118;27;20042;-61
2023/09/08 02:55:31;;;;;;;16.05;7.47;;;23.70;94.70;;;;;;4264874;27;20480;-62
2023/09/08 02:57:33;;;;;;;14.98;7.63;;;23.70;94.70;;;;;;4264410;27;20159;-62
2023/09/08 02:59:35;;;;;;;11.95;7.35;;;23.60;95.10;;;;;;4264737;27;20130;-62
2023/09/08 03:01:37;;;;;;;12.38;6.80;;;23.60;94.90;;;;;;4263745;27;20092;-62
2023/09/08 03:03:42;;;;;;;14.55;7.20;;;23.50;95.00;;;;;;4264442;27;20050;-62
2023/09/08 03:05:47;;;;;;;13.80;7.40;;;23.50;95.10;;;;;;4264903;27;20042;-62
2023/09/08 03:07:49;;;;;;;11.88;6.90;;;23.50;95.00;;;;;;4264981;27;20050;-63
2023/09/08 03:09:51;;;;;;;15.68;7.88;;;23.50;95.10;;;;;;4265088;27;20095;-62
2023/09/08 03:11:53;;;;;;;13.27;6.97;;;23.40;95.30;;;;;;4263835;27;20105;-62
2023/09/08 03:13:56;;;;;;;16.58;7.20;;;23.40;95.60;;;;;;4264786;27;20043;-62
2023/09/08 03:16:03;;;;;;;12.70;6.75;;;23.50;95.10;;;;;;4264660;27;20051;-62
2023/09/08 03:18:05;;;;;;;11.77;6.80;;;23.50;95.20;;;;;;4264624;27;20054;-62
2023/09/08 03:20:10;;;;;;;12.20;6.80;;;23.40;95.30;;;;;;4264643;27;20403;-62
2023/09/08 03:22:12;;;;;;;;;;;23.40;95.30;;;;;;4264268;27;20488;-62
2023/09/08 03:24:14;;;;;;;10.70;7.30;;;23.30;95.70;;;;;;4264722;27;19919;-62
2023/09/08 03:26:16;;;;;;;12.30;6.75;;;23.20;95.80;;;;;;4264307;27;20117;-62
2023/09/08 03:28:19;;;;;;;13.38;7.20;;;23.20;95.80;;;;;;4264521;27;20043;-64
2023/09/08 03:30:21;;;;;;;16.88;7.57;;;23.20;95.80;;;;;;4264110;27;20066;-62
2023/09/08 03:32:25;;;;;;;13.00;8.15;;;23.20;95.80;;;;;;4244831;27;20070;-63
2023/09/08 03:34:27;;;;;;;13.52;7.82;;;23.20;95.70;;;;;;4264420;27;20081;-62
2023/09/08 03:36:35;;;;;;;15.40;7.45;;;23.20;95.70;;;;;;4264347;27;20046;-62
2023/09/08 03:38:38;;;;;;;16.98;8.10;;;23.30;95.80;;;;;;4264414;27;20043;-62
2023/09/08 03:40:40;;;;;;;20.92;8.38;;;23.20;95.90;;;;;;4263643;27;20066;-62
2023/09/08 03:42:42;;;;;;;14.27;8.40;;;23.20;95.90;;;;;;4264157;27;20049;-62
2023/09/08 03:44:45;;;;;;;14.75;8.77;;;23.20;95.80;;;;;;4264642;27;20515;-62
2023/09/08 03:46:47;;;;;;;14.80;8.05;;;23.20;96.00;;;;;;4263851;27;20050;-61
2023/09/08 03:48:49;;;;;;;17.90;8.02;;;23.10;96.00;;;;;;4245513;28;20413;-61
2023/09/08 03:50:51;;;;;;;16.38;8.25;;;23.10;96.20;;;;;;4263351;27;20043;-61
2023/09/08 03:52:55;;;;;;;17.90;7.45;;;23.10;96.10;;;;;;4264182;27;20087;-60
2023/09/08 03:54:58;;;;;;;17.85;8.63;;;23.20;96.10;;;;;;4264309;27;20047;-61
2023/09/08 03:57:00;;;;;;;18.13;7.97;;;23.10;96.20;;;;;;4264166;27;20567;-61
2023/09/08 03:59:02;;;;;;;15.52;8.20;;;23.10;96.20;;;;;;4264299;27;20474;-61
2023/09/08 04:01:04;;;;;;;26.67;9.15;;;23.10;96.20;;;;;;4262915;27;20058;-62
2023/09/08 04:03:06;;;;;;;15.60;7.78;;;23.10;96.20;;;;;;4245623;28;20075;-61
2023/09/08 04:05:10;;;;;;;14.27;8.25;;;23.00;96.30;;;;;;4264228;27;20103;-61
2023/09/08 04:07:12;;;;;;;12.10;7.88;;;23.00;96.40;;;;;;4264436;27;20042;-60
2023/09/08 04:09:16;;;;;;;18.77;8.55;;;23.00;96.40;;;;;;4266000;27;20047;-63
2023/09/08 04:11:18;;;;;;;19.50;8.32;;;23.00;96.40;;;;;;4266712;27;20054;-61
2023/09/08 04:13:20;;;;;;;15.93;8.40;;;23.10;96.40;;;;;;4267303;27;20098;-68
2023/09/08 04:15:25;;;;;;;15.43;9.05;;;23.00;96.60;;;;;;4267320;27;20463;-61
2023/09/08 04:17:27;;;;;;;14.30;8.00;;;23.00;96.50;;;;;;4267299;27;20399;-61
2023/09/08 04:19:32;;;;;;;16.83;8.80;;;23.10;96.40;;;;;;4267173;27;20488;-61
2023/09/08 04:21:35;;;;;;;21.38;8.48;;;23.10;96.50;;;;;;4266192;27;20095;-62
2023/09/08 04:23:37;;;;;;;28.85;9.70;;;23.10;96.40;;;;;;4267389;27;20065;-62
2023/09/08 04:25:40;;;;;;;21.85;8.65;;;23.10;96.30;;;;;;4267452;27;20451;-61
2023/09/08 04:27:44;;;;;;;23.38;9.10;;;23.10;96.20;;;;;;4267172;27;20054;-61
2023/09/08 04:29:46;;;;;;;24.83;10.40;;;23.20;96.20;;;;;;4266952;27;20057;-61
2023/09/08 04:31:48;;;;;;;26.75;9.63;;;23.20;96.30;;;;;;4265933;27;20447;-61
2023/09/08 04:33:50;;;;;;;22.55;9.27;;;23.20;96.10;;;;;;4267243;27;20047;-62
2023/09/08 04:35:52;;;;;;;24.13;9.50;;;23.20;96.00;;;;;;4266960;27;20047;-62
2023/09/08 04:37:55;;;;;;;25.38;10.13;;;23.30;96.10;;;;;;4266836;27;20043;-62
2023/09/08 04:39:57;;;;;;;21.48;8.95;;;23.20;96.20;;;;;;4266901;27;20055;-62
2023/09/08 04:42:00;;;;;;;18.52;9.45;;;23.20;96.20;;;;;;4266396;27;20544;-61
2023/09/08 04:44:03;;;;;;;27.38;10.43;;;23.20;96.10;;;;;;4266707;27;20067;-61
2023/09/08 04:46:05;;;;;;;31.77;10.68;;;23.20;96.10;;;;;;4267031;27;20046;-61
2023/09/08 04:48:07;;;;;;;28.60;9.80;;;23.20;96.10;;;;;;4266912;27;20087;-61
2023/09/08 04:50:10;;;;;;;27.77;10.10;;;23.20;96.20;;;;;;4266868;27;20129;-61
2023/09/08 04:52:12;;;;;;;28.73;9.85;;;23.10;96.20;;;;;;4266067;27;20039;-61
2023/09/08 04:54:14;;;;;;;34.05;10.00;;;23.10;96.20;;;;;;4267082;27;20049;-64
2023/09/08 04:56:16;;;;;;;31.70;10.35;;;23.10;96.10;;;;;;4247993;27;20059;-61
2023/09/08 04:58:20;;;;;;;26.80;9.95;;;23.10;96.20;;;;;;4266796;27;20461;-62
2023/09/08 05:00:22;;;;;;;43.75;10.82;;;23.10;96.10;;;;;;4266504;27;20054;-61
2023/09/08 05:02:24;;;;;;;28.52;8.68;;;23.00;96.20;;;;;;4247366;27;20458;-65
2023/09/08 05:04:31;;;;;;;22.27;9.35;;;23.10;96.20;;;;;;4266481;27;20510;-63
2023/09/08 05:06:33;;;;;;;20.52;8.90;;;23.00;96.20;;;;;;4266452;27;20043;-64
2023/09/08 05:08:36;;;;;;;19.92;9.70;;;23.00;96.40;;;;;;4266846;27;20039;-62
2023/09/08 05:10:38;;;;;;;24.55;9.15;;;23.00;96.20;;;;;;4266401;27;20047;-61
2023/09/08 05:12:40;;;;;;;24.27;9.35;;;23.00;96.20;;;;;;4265851;27;20066;-62
2023/09/08 05:14:44;;;;;;;23.00;9.30;;;23.00;96.30;;;;;;4266406;27;20117;-61
2023/09/08 05:16:48;;;;;;;15.10;8.85;;;22.90;96.30;;;;;;4266602;27;20038;-61
2023/09/08 05:18:51;;;;;;;26.17;8.90;;;23.00;96.30;;;;;;4266418;27;20490;-62
2023/09/08 05:20:54;;;;;;;19.85;9.27;;;22.90;96.30;;;;;;4265591;27;20145;-62
2023/09/08 05:22:56;;;;;;;32.88;8.73;;;22.90;96.30;;;;;;4265868;27;20054;-61
2023/09/08 05:24:58;;;;;;;26.02;8.70;;;23.00;96.30;;;;;;4266343;27;20067;-63
2023/09/08 05:27:00;;;;;;;16.02;7.53;;;22.90;96.20;;;;;;4266465;27;20476;-61
2023/09/08 05:29:02;;;;;;;21.63;8.15;;;22.90;96.40;;;;;;4266234;27;20046;-66
2023/09/08 05:31:06;;;;;;;24.65;8.60;;;22.80;96.50;;;;;;4265738;27;20404;-64
2023/09/08 05:33:08;;;;;;;15.55;8.13;;;22.90;96.70;;;;;;4266393;27;20035;-61
2023/09/08 05:35:10;;;;;;;17.77;7.25;;;22.90;96.40;;;;;;4266188;27;20126;-61
2023/09/08 05:37:12;;;;;;;16.73;7.72;;;22.80;96.50;;;;;;4265934;27;20099;-61
2023/09/08 05:39:19;;;;;;;16.35;7.15;;;22.90;96.60;;;;;;4266366;27;20054;-62
2023/09/08 05:41:21;;;;;;;14.48;7.40;;;22.90;96.60;;;;;;4265268;27;20495;-62
2023/09/08 05:43:26;;;;;;;16.50;7.55;;;22.90;96.50;;;;;;4265560;27;20091;-64
2023/09/08 05:45:29;;;;;;;18.55;7.57;;;22.80;96.50;;;;;;4266108;27;20046;-61
2023/09/08 05:47:32;;;;;;;21.65;7.30;;;22.80;96.40;;;;;;4266046;27;20046;-61
2023/09/08 05:49:34;;;;;;;13.07;7.05;;;22.90;96.40;;;;;;4230255;28;20204;-64
2023/09/08 05:51:38;;;;;;;16.63;8.07;;;22.80;96.60;;;;;;4231061;28;20040;-61
2023/09/08 05:53:41;;;;;;;15.75;7.05;;;22.80;96.60;;;;;;4231656;28;20058;-61
2023/09/08 05:55:46;;;;;;;25.88;8.25;;;22.90;96.70;;;;;;4231715;28;20071;-61
2023/09/08 05:57:48;;;;;;;26.48;8.50;;;22.80;96.70;;;;;;4231200;28;20047;-61
2023/09/08 05:59:50;;;;;;;27.55;9.20;;;22.90;96.50;;;;;;4231603;28;20058;-61
2023/09/08 06:01:52;;;;;;;23.73;8.57;;;22.90;96.40;;;;;;4230716;28;20043;-60
2023/09/08 06:03:57;;;;;;;19.40;7.75;;;22.90;96.30;;;;;;4231882;28;20108;-62
2023/09/08 06:05:59;;;;;;;27.17;9.00;;;22.90;96.20;;;;;;4231746;28;20052;-60
2023/09/08 06:08:01;;;;;;;25.02;8.93;;;22.90;96.20;;;;;;4231435;28;20373;-62
2023/09/08 06:10:09;;;;;;;33.88;8.85;;;23.00;96.10;;;;;;4231000;28;20135;-62
2023/09/08 06:12:11;;;;;;;32.97;9.05;;;23.10;96.20;;;;;;4230067;28;20085;-61
2023/09/08 06:14:14;;;;;;;32.35;8.85;;;23.10;96.20;;;;;;4231455;28;20070;-62
2023/09/08 06:16:16;;;;;;;37.15;9.50;;;23.10;96.10;;;;;;4236274;27;20123;-59
2023/09/08 06:18:18;;;;;;;36.35;10.68;;;23.10;96.00;;;;;;4248264;27;20047;-61
2023/09/08 06:20:22;;;;;;;33.03;9.05;;;23.10;96.00;;;;;;4248370;27;20100;-61
2023/09/08 06:22:27;;;;;;;27.00;9.35;;;23.10;95.90;;;;;;4247354;27;20072;-62
2023/09/08 06:24:29;;;;;;;45.90;10.02;;;23.20;96.30;;;;;;4248070;27;20047;-61
2023/09/08 06:26:31;;;;;;;24.98;9.00;;;23.20;96.20;;;;;;4248100;27;20130;-61
2023/09/08 06:28:34;;;;;;;27.83;9.82;;;23.20;95.90;;;;;;4246887;27;20051;-60
2023/09/08 06:30:36;;;;;;;52.13;11.23;;;23.20;95.90;;;;;;4247875;27;20051;-61
2023/09/08 06:32:38;;;;;;;48.92;10.90;;;23.30;95.80;;;;;;4246777;27;20078;-61
2023/09/08 06:34:41;;;;;;;35.05;10.05;;;23.30;95.70;;;;;;4248361;27;20047;-61
2023/09/08 06:36:49;;;;;;;52.30;12.85;;;23.30;95.60;;;;;;4248197;27;20066;-65
2023/09/08 06:38:52;;;;;;;90.68;16.67;;;23.40;95.50;;;;;;4247955;27;20496;-61
2023/09/08 06:40:54;;;;;;;56.88;11.85;;;23.40;95.50;;;;;;4247855;27;20062;-60
2023/09/08 06:42:57;;;;;;;35.97;9.55;;;23.40;95.40;;;;;;4245754;27;20047;-61
2023/09/08 06:45:02;;;;;;;47.47;10.90;;;23.40;95.50;;;;;;4247944;27;20054;-62
2023/09/08 06:47:06;;;;;;;79.20;14.10;;;23.50;95.40;;;;;;4248132;27;20093;-64
2023/09/08 06:49:08;;;;;;;120.80;17.73;;;23.50;95.40;;;;;;4261344;27;20043;-61
2023/09/08 06:51:14;;;;;;;72.20;15.27;;;23.50;95.40;;;;;;4264101;27;20106;-61
2023/09/08 06:53:17;;;;;;;56.40;13.30;;;23.50;95.40;;;;;;4264753;27;20044;-61
2023/09/08 06:55:19;;;;;;;33.47;9.93;;;23.60;95.40;;;;;;4264378;27;20050;-61
2023/09/08 06:57:21;;;;;;;37.13;10.88;;;23.60;95.30;;;;;;4264629;27;20059;-61
2023/09/08 06:59:24;;;;;;;33.50;9.10;;;23.60;95.40;;;;;;4264856;27;20100;-60
2023/09/08 07:01:26;;;;;;;36.85;9.88;;;23.60;95.30;;;;;;4263850;27;20141;-62
2023/09/08 07:03:28;;;;;;;39.97;9.07;;;23.60;95.50;;;;;;4264662;27;20488;-60
2023/09/08 07:05:31;;;;;;;32.40;9.07;;;23.70;95.20;;;;;;4264878;27;20043;-61
2023/09/08 07:07:33;;;;;;;42.15;10.63;;;23.70;95.40;;;;;;4264524;27;20071;-61
2023/09/08 07:09:37;;;;;;;36.20;11.23;;;23.70;95.00;;;;;;4264375;27;20073;-61
2023/09/08 07:11:39;;;;;;;41.63;10.75;;;23.80;94.90;;;;;;4263577;27;20050;-61
2023/09/08 07:13:41;;;;;;;27.30;8.73;;;23.80;95.00;;;;;;4264520;27;20404;-60
2023/09/08 07:15:43;;;;;;;47.83;10.98;;;23.90;94.90;;;;;;4264413;27;20084;-61
2023/09/08 07:17:45;;;;;;;35.28;10.32;;;23.90;94.90;;;;;;4247192;27;20489;-61
2023/09/08 07:19:48;;;;;;;39.35;10.20;;;24.00;94.80;;;;;;4247271;27;20043;-60
2023/09/08 07:21:50;;;;;;;31.80;9.30;;;24.00;94.80;;;;;;4228174;28;20472;-61
2023/09/08 07:23:53;;;;;;;43.45;10.18;;;24.10;94.80;;;;;;4247155;27;20047;-60
2023/09/08 07:25:57;;;;;;;31.48;9.98;;;24.10;94.70;;;;;;4247409;27;20051;-61
2023/09/08 07:27:59;;;;;;;37.28;10.63;;;24.10;94.60;;;;;;4247372;27;20092;-62
2023/09/08 07:30:01;;;;;;;36.97;10.23;;;24.20;94.60;;;;;;4247586;27;20043;-61
2023/09/08 07:32:04;;;;;;;29.05;9.88;;;24.30;94.50;;;;;;4246797;27;20123;-61
2023/09/08 07:34:08;;;;;;;43.45;10.73;;;24.40;94.20;;;;;;4247657;27;20043;-61
2023/09/08 07:36:10;;;;;;;53.42;10.80;;;24.50;94.20;;;;;;4247649;27;20066;-60
2023/09/08 07:38:12;;;;;;;33.97;9.57;;;24.60;94.00;;;;;;4247120;28;20043;-60
2023/09/08 07:40:15;;;;;;;45.40;11.18;;;24.70;94.00;;;;;;4247551;28;20062;-61
2023/09/08 07:42:18;;;;;;;31.50;10.10;;;24.90;93.90;;;;;;4246188;27;20476;-61
2023/09/08 07:44:20;;;;;;;40.63;11.18;;;25.00;93.70;;;;;;4231259;28;20051;-62
2023/09/08 07:46:22;;;;;;;51.42;11.02;;;25.10;93.50;;;;;;4250929;27;20099;-60
2023/09/08 07:48:25;;;;;;;50.22;10.20;;;25.20;93.50;;;;;;4251108;27;20047;-61
2023/09/08 07:50:28;;;;;;;45.85;10.65;;;25.30;93.50;;;;;;4250737;27;20071;-60
2023/09/08 07:52:33;;;;;;;44.42;10.52;;;25.40;93.30;;;;;;4249404;27;20408;-60
2023/09/08 07:54:35;;;;;;;35.08;10.52;;;25.50;92.90;;;;;;4250737;27;20104;-61
2023/09/08 07:56:38;;;;;;;35.75;9.30;;;25.60;92.90;;;;;;4250557;27;20450;-62
2023/09/08 07:58:41;;;;;;;34.13;9.07;;;25.70;92.60;;;;;;4250806;27;20061;-61
2023/09/08 08:00:43;;;;;;;32.13;9.13;;;25.90;92.80;;;;;;4250543;27;20450;-64
2023/09/08 08:02:47;;;;;;;41.83;9.75;;;25.90;92.40;;;;;;4248268;27;20071;-61
2023/09/08 08:04:50;;;;;;;37.00;9.80;;;26.00;92.40;;;;;;4251293;27;20039;-61
2023/09/08 08:06:52;;;;;;;29.13;8.70;;;26.10;92.20;;;;;;4251841;27;20044;-61
2023/09/08 08:08:54;;;;;;;38.45;9.82;;;26.10;92.30;;;;;;4256304;27;20078;-61
2023/09/08 08:10:56;;;;;;;41.65;8.27;;;26.30;92.20;;;;;;4266701;27;20047;-61
2023/09/08 08:12:59;;;;;;;32.00;9.27;;;26.30;91.90;;;;;;4264555;27;20042;-62
2023/09/08 08:15:04;;;;;;;27.65;7.95;;;26.40;91.60;;;;;;4242754;27;20122;-61
2023/09/08 08:17:06;;;;;;;23.98;7.75;;;26.40;91.50;;;;;;4266540;27;20046;-61
2023/09/08 08:19:08;;;;;;;19.48;6.80;;;26.60;91.50;;;;;;4265242;27;20049;-61
2023/09/08 08:21:10;;;;;;;29.33;8.38;;;26.60;91.40;;;;;;4265616;27;20038;-61
2023/09/08 08:23:12;;;;;;;26.55;7.40;;;26.70;91.20;;;;;;4262697;27;20038;-60
2023/09/08 08:25:15;;;;;;;38.30;8.13;;;26.70;91.20;;;;;;4265960;27;20130;-61
2023/09/08 08:27:17;;;;;;;23.38;7.35;;;26.90;91.30;;;;;;4264796;27;20507;-60
2023/09/08 08:29:20;;;;;;;24.55;7.85;;;26.90;91.40;;;;;;4248147;27;20047;-62
2023/09/08 08:31:24;;;;;;;30.35;8.45;;;27.00;91.20;;;;;;4266245;27;20078;-61
2023/09/08 08:33:26;;;;;;;21.17;7.30;;;27.10;91.10;;;;;;4266266;27;20137;-62
2023/09/08 08:35:28;;;;;;;24.08;7.20;;;27.20;91.10;;;;;;4255182;27;20045;-62
2023/09/08 08:37:30;;;;;;;20.88;6.35;;;27.20;90.50;;;;;;4266215;27;20042;-62
2023/09/08 08:39:32;;;;;;;20.55;6.45;;;27.30;90.50;;;;;;4266082;27;20047;-61
2023/09/08 08:41:37;;;;;;;16.60;5.32;;;27.40;90.50;;;;;;4264272;27;20043;-61
2023/09/08 08:43:41;;;;;;;11.82;5.07;;;27.50;90.40;;;;;;4266323;27;20043;-62
2023/09/08 08:45:46;;;;;;;11.38;4.35;;;27.60;89.60;;;;;;4266123;27;20047;-61
2023/09/08 08:47:50;;;;;;;10.27;4.10;;;27.70;88.80;;;;;;4266263;27;20039;-61
2023/09/08 08:49:53;;;;;;;10.17;4.07;;;27.80;88.20;;;;;;4266194;27;20057;-61
2023/09/08 08:51:57;;;;;;;17.98;4.57;;;27.80;88.60;;;;;;4246245;27;20334;-61
2023/09/08 08:54:04;;;;;;;13.85;4.72;;;27.90;88.60;;;;;;4265661;27;20039;-61
2023/09/08 08:56:08;;;;;;;16.95;4.30;;;28.00;87.80;;;;;;4260791;27;20058;-62
2023/09/08 08:58:10;;;;;;;15.88;4.40;;;28.00;88.00;;;;;;4259309;27;20505;-62
2023/09/08 09:00:18;;;;;;;17.48;5.15;;;28.10;88.50;;;;;;4261651;27;20034;-62
2023/09/08 09:02:22;;;;;;;16.52;5.22;;;28.20;87.40;;;;;;4251741;27;20065;-61
2023/09/08 09:04:26;;;;;;;14.00;4.90;;;28.20;86.90;;;;;;4258164;27;20449;-62
2023/09/08 09:06:28;;;;;;;21.02;4.95;;;28.30;86.70;;;;;;4258860;27;20039;-61
2023/09/08 09:08:32;;;;;;;17.20;5.32;;;28.40;86.60;;;;;;4266212;27;20047;-62
2023/09/08 09:10:34;;;;;;;21.25;5.03;;;28.40;86.40;;;;;;4265842;27;20050;-62
2023/09/08 09:12:37;;;;;;;13.98;4.90;;;28.50;86.10;;;;;;4264801;27;20048;-62
2023/09/08 09:14:45;;;;;;;16.85;5.13;;;28.50;86.80;;;;;;4263973;27;20047;-62
2023/09/08 09:16:48;;;;;;;16.42;5.40;;;28.60;86.60;;;;;;4261163;27;20114;-62
2023/09/08 09:18:55;;;;;;;23.33;5.47;;;28.60;86.10;;;;;;4265927;27;20464;-62
2023/09/08 09:21:01;;;;;;;21.35;5.43;;;28.70;86.30;;;;;;4265049;27;20114;-62
2023/09/08 09:23:03;;;;;;;15.48;5.03;;;28.70;86.10;;;;;;4264988;27;20476;-61
2023/09/08 09:25:07;;;;;;;18.35;5.35;;;28.80;85.90;;;;;;4246714;27;20405;-62
2023/09/08 09:27:11;;;;;;;17.58;5.60;;;28.80;85.90;;;;;;4265532;27;20042;-62
2023/09/08 09:29:13;;;;;;;16.25;5.53;;;28.90;86.00;;;;;;4265406;27;20049;-62
2023/09/08 09:31:15;;;;;;;13.95;4.97;;;28.90;85.80;;;;;;4263696;27;20491;-62
2023/09/08 09:33:18;;;;;;;16.67;5.38;;;28.90;85.80;;;;;;4264444;27;20042;-62
2023/09/08 09:35:39;;;;;;;14.68;5.20;;;29.00;85.80;;;;;;4260747;27;20119;-61
2023/09/08 09:37:43;;;;;;;24.05;6.03;;;29.00;84.40;;;;;;4262163;27;20042;-61
2023/09/08 09:39:48;;;;;;;23.97;5.53;;;29.10;85.60;;;;;;4265386;27;20042;-61
2023/09/08 09:41:54;;;;;;;17.02;5.13;;;29.10;85.20;;;;;;4264103;27;20035;-63
2023/09/08 09:43:57;;;;;;;22.65;6.40;;;29.20;85.50;;;;;;4265300;27;20042;-63
2023/09/08 09:45:59;;;;;;;17.55;6.13;;;29.30;85.00;;;;;;4265150;27;20043;-62
2023/09/08 09:48:06;;;;;;;23.52;6.45;;;29.30;84.40;;;;;;4263616;27;20069;-62
2023/09/08 09:50:09;;;;;;;55.90;7.97;;;29.40;88.90;;;;;;4255231;27;20039;-61
2023/09/08 09:52:15;;;;;;;16.77;5.45;;;29.40;92.10;;;;;;4261456;27;20407;-61
2023/09/08 09:54:19;;;;;;;24.67;5.75;;;29.40;92.70;;;;;;4264419;27;20235;-61
2023/09/08 09:56:23;;;;;;;14.88;5.40;;;29.20;92.40;;;;;;4261873;27;20560;-61
2023/09/08 09:58:26;;;;;;;19.65;6.43;;;29.00;91.00;;;;;;4260155;27;20373;-62
2023/09/08 10:00:28;;;;;;;22.33;5.93;;;28.90;92.60;;;;;;4260085;27;20154;-62
2023/09/08 10:02:31;;;;;;;20.48;4.88;;;28.80;91.90;;;;;;4255533;27;20049;-61
2023/09/08 10:04:33;;;;;;;20.25;5.10;;;28.90;92.00;;;;;;4253281;27;20047;-62
2023/09/08 10:06:37;;;;;;;21.73;5.70;;;29.00;90.70;;;;;;4255768;27;20043;-61
2023/09/08 10:08:40;;;;;;;22.05;5.35;;;29.10;90.60;;;;;;4257089;27;20047;-60
2023/09/08 10:10:45;;;;;;;26.77;5.70;;;29.10;90.40;;;;;;4253427;27;20388;-61
2023/09/08 10:12:52;;;;;;;17.08;5.30;;;29.20;89.60;;;;;;4262442;27;20472;-62
2023/09/08 10:14:56;;;;;;;22.85;5.35;;;29.20;88.50;;;;;;4264735;27;20046;-62
2023/09/08 10:17:01;;;;;;;15.02;5.85;;;29.40;88.30;;;;;;4264439;27;20091;-62
2023/09/08 10:19:08;;;;;;;17.80;5.00;;;29.50;88.60;;;;;;4262475;27;20046;-63
2023/09/08 10:21:12;;;;;;;18.77;5.47;;;29.60;86.40;;;;;;4252457;27;20055;-60
2023/09/08 10:23:26;;;;;;;23.08;5.95;;;29.60;88.20;;;;;;4240850;27;20130;-63
2023/09/08 10:25:34;;;;;;;17.85;5.30;;;29.60;86.60;;;;;;4247014;27;20050;-63
2023/09/08 10:27:38;;;;;;;16.45;5.55;;;29.70;86.30;;;;;;4255535;27;20130;-62
2023/09/08 10:29:40;;;;;;;16.15;5.47;;;29.80;87.60;;;;;;4264693;27;20466;-62
2023/09/08 10:31:44;;;;;;;15.32;5.40;;;29.90;86.20;;;;;;4264363;27;20450;-62